Aérodrome :
LOGIN :

S'inscrire | Disclaimer

   EN    FR    IT 

 










Légende :    VFR   VFR Marginal   IFR   IFR Intensif   IFR Très Intensif
Visi : 
Plafond : 
>= 8 km
>= 3000ft
5 à 8 km
1000 à 3000 ft
1500m à 5 km
500 à 1000 ft
800 à 1500m
200 à 500 ft
< 800m
< 200 ft
Symboles :   Orages  Brouillard  Fortes neiges  Fortes précipitations  Vent > 20 kt
SIGMETs :   Divers  Orages  Givrage  Turbulence  Onde Orograph.  Cendres Volcan.






- Altitude de l'aérodrome : 202 ft
- Code IATA : LGW


EGKK - London Gatwick

DERNIER METAR :
  • 121250Z 18011KT 7000 -RA BKN006 09/08 Q0986

METARs EXPIRÉS :
  • 121220Z 18013KT 7000 -RA BKN006 09/08 Q0987
  • 121150Z 18013KT 130V210 7000 -RA BKN008 08/08 Q0988
  • 121120Z 17011KT 140V200 7000 -RADZ BKN007 08/07 Q0989 RERA REDZ
  • 121050Z 16010KT 130V190 3500 RA SCT007 BKN010 07/07 Q0991
  • 121020Z 17010KT 140V220 8000 -RA FEW009 BKN019 07/06 Q0992 RERA

TAF TAF EGKK
Valide du 12 à 12h jusqu'au 13 à 18h UTC


121100Z 1212/1318 17012KT 9999 BKN030
TEMPO 1212/1217 7000 -RA
PROB40
TEMPO 1212/1217 17016G26KT 4000 RA BKN007
BECMG 1216/1219 25010KT
PROB30
TEMPO 1217/1220 7000 RA BKN012
TEMPO 1222/1304 7000 RA
PROB40
TEMPO 1223/1302 27016G26KT 4000 +SHRA BKN012
BECMG 1302/1305 27015G25KT
BECMG 1316/1318 25010KT



MET'MAP, la Météo Aéronautique d'un coup d'oeil ! - Copyright ORBIFLY Décembre 2007 - Disclaimer

ORBIFLY MET'MAP TEAM :

Programmation & Développement : Alexandra Zaïnal
Sur une idée originale de : Baudouin d'Aumeries
Assistance à la programmation : Marc-Olivier Méhu
Soutien technique & logistique : Manuel Goepfert

Contact : metmap@orbifly.com




SOURCES & CREDITS :

   NOAA